sensor_id;sensor_type;location;lat;lon;timestamp;P1;durP1;ratioP1;P2;durP2;ratioP2
58685;SDS011;44465;53.206;-6.106;2023-07-13T00:00:17;3.05;;;1.85;;
58685;SDS011;44465;53.206;-6.106;2023-07-13T00:02:43;3.50;;;2.10;;
58685;SDS011;44465;53.206;-6.106;2023-07-13T00:05:09;3.03;;;1.60;;
58685;SDS011;44465;53.206;-6.106;2023-07-13T00:07:35;1.85;;;1.60;;
58685;SDS011;44465;53.206;-6.106;2023-07-13T00:10:01;3.50;;;1.70;;
58685;SDS011;44465;53.206;-6.106;2023-07-13T00:14:56;3.45;;;1.63;;
58685;SDS011;44465;53.206;-6.106;2023-07-13T00:19:48;3.80;;;1.48;;
58685;SDS011;44465;53.206;-6.106;2023-07-13T00:22:14;3.42;;;1.90;;
58685;SDS011;44465;53.206;-6.106;2023-07-13T00:24:39;1.92;;;1.83;;
58685;SDS011;44465;53.206;-6.106;2023-07-13T00:27:09;2.75;;;1.85;;
58685;SDS011;44465;53.206;-6.106;2023-07-13T00:29:35;3.03;;;1.52;;
58685;SDS011;44465;53.206;-6.106;2023-07-13T00:32:02;3.05;;;1.35;;
58685;SDS011;44465;53.206;-6.106;2023-07-13T00:34:28;3.22;;;1.35;;
58685;SDS011;44465;53.206;-6.106;2023-07-13T00:36:54;2.25;;;1.50;;
58685;SDS011;44465;53.206;-6.106;2023-07-13T00:39:19;3.38;;;1.52;;
58685;SDS011;44465;53.206;-6.106;2023-07-13T00:41:46;3.47;;;1.70;;
58685;SDS011;44465;53.206;-6.106;2023-07-13T00:44:15;3.55;;;1.63;;
58685;SDS011;44465;53.206;-6.106;2023-07-13T00:46:41;1.38;;;1.13;;
58685;SDS011;44465;53.206;-6.106;2023-07-13T00:49:08;2.53;;;1.42;;
58685;SDS011;44465;53.206;-6.106;2023-07-13T00:51:39;2.25;;;1.50;;
58685;SDS011;44465;53.206;-6.106;2023-07-13T00:54:09;1.95;;;1.30;;
58685;SDS011;44465;53.206;-6.106;2023-07-13T00:56:38;4.20;;;1.88;;
58685;SDS011;44465;53.206;-6.106;2023-07-13T00:59:06;2.13;;;1.20;;
58685;SDS011;44465;53.206;-6.106;2023-07-13T01:01:33;1.65;;;1.30;;
58685;SDS011;44465;53.206;-6.106;2023-07-13T01:04:00;3.38;;;1.50;;
58685;SDS011;44465;53.206;-6.106;2023-07-13T01:06:25;1.85;;;1.45;;
58685;SDS011;44465;53.206;-6.106;2023-07-13T01:08:51;1.70;;;1.27;;
58685;SDS011;44465;53.206;-6.106;2023-07-13T01:11:20;2.85;;;1.38;;
58685;SDS011;44465;53.206;-6.106;2023-07-13T01:13:47;2.08;;;1.38;;
58685;SDS011;44465;53.206;-6.106;2023-07-13T01:16:17;2.90;;;1.70;;
58685;SDS011;44465;53.206;-6.106;2023-07-13T01:18:50;2.85;;;1.23;;
58685;SDS011;44465;53.206;-6.106;2023-07-13T01:21:15;2.15;;;1.40;;
58685;SDS011;44465;53.206;-6.106;2023-07-13T01:23:41;1.75;;;1.42;;
58685;SDS011;44465;53.206;-6.106;2023-07-13T01:26:06;1.45;;;1.05;;
58685;SDS011;44465;53.206;-6.106;2023-07-13T01:28:32;1.77;;;1.35;;
58685;SDS011;44465;53.206;-6.106;2023-07-13T01:31:02;2.83;;;1.52;;
58685;SDS011;44465;53.206;-6.106;2023-07-13T01:33:28;2.45;;;1.45;;
58685;SDS011;44465;53.206;-6.106;2023-07-13T01:35:55;3.60;;;1.30;;
58685;SDS011;44465;53.206;-6.106;2023-07-13T01:40:48;2.28;;;1.13;;
58685;SDS011;44465;53.206;-6.106;2023-07-13T01:43:13;2.55;;;1.35;;
58685;SDS011;44465;53.206;-6.106;2023-07-13T01:45:39;1.38;;;1.00;;
58685;SDS011;44465;53.206;-6.106;2023-07-13T01:48:05;2.40;;;1.58;;
58685;SDS011;44465;53.206;-6.106;2023-07-13T01:50:32;1.63;;;1.40;;
58685;SDS011;44465;53.206;-6.106;2023-07-13T01:52:58;2.80;;;1.40;;
58685;SDS011;44465;53.206;-6.106;2023-07-13T01:55:24;2.17;;;1.30;;
58685;SDS011;44465;53.206;-6.106;2023-07-13T01:57:49;1.38;;;1.20;;
58685;SDS011;44465;53.206;-6.106;2023-07-13T02:00:15;2.75;;;1.40;;
58685;SDS011;44465;53.206;-6.106;2023-07-13T02:02:46;1.80;;;1.20;;
58685;SDS011;44465;53.206;-6.106;2023-07-13T02:05:12;4.60;;;1.35;;
58685;SDS011;44465;53.206;-6.106;2023-07-13T02:07:40;3.05;;;1.42;;
58685;SDS011;44465;53.206;-6.106;2023-07-13T02:10:07;1.20;;;1.10;;
58685;SDS011;44465;53.206;-6.106;2023-07-13T02:12:33;1.33;;;0.95;;
58685;SDS011;44465;53.206;-6.106;2023-07-13T02:14:59;1.80;;;1.45;;
58685;SDS011;44465;53.206;-6.106;2023-07-13T02:17:25;1.45;;;1.35;;
58685;SDS011;44465;53.206;-6.106;2023-07-13T02:19:51;2.42;;;1.25;;
58685;SDS011;44465;53.206;-6.106;2023-07-13T02:22:17;1.60;;;1.25;;
58685;SDS011;44465;53.206;-6.106;2023-07-13T02:24:42;1.70;;;1.30;;
58685;SDS011;44465;53.206;-6.106;2023-07-13T02:27:08;2.58;;;1.40;;
58685;SDS011;44465;53.206;-6.106;2023-07-13T02:29:33;1.67;;;1.05;;
58685;SDS011;44465;53.206;-6.106;2023-07-13T02:31:58;1.42;;;1.27;;
58685;SDS011;44465;53.206;-6.106;2023-07-13T02:34:24;1.45;;;1.23;;
58685;SDS011;44465;53.206;-6.106;2023-07-13T02:36:49;1.67;;;1.33;;
58685;SDS011;44465;53.206;-6.106;2023-07-13T02:39:15;2.17;;;1.27;;
58685;SDS011;44465;53.206;-6.106;2023-07-13T02:41:41;1.23;;;1.05;;
58685;SDS011;44465;53.206;-6.106;2023-07-13T02:44:06;2.30;;;1.23;;
58685;SDS011;44465;53.206;-6.106;2023-07-13T02:46:34;1.50;;;1.08;;
58685;SDS011;44465;53.206;-6.106;2023-07-13T02:49:01;1.75;;;1.30;;
58685;SDS011;44465;53.206;-6.106;2023-07-13T02:51:28;3.80;;;1.30;;
58685;SDS011;44465;53.206;-6.106;2023-07-13T02:53:54;0.98;;;0.98;;
58685;SDS011;44465;53.206;-6.106;2023-07-13T02:56:24;1.75;;;1.15;;
58685;SDS011;44465;53.206;-6.106;2023-07-13T02:58:53;1.15;;;1.00;;
58685;SDS011;44465;53.206;-6.106;2023-07-13T03:01:20;2.20;;;1.20;;
58685;SDS011;44465;53.206;-6.106;2023-07-13T03:03:47;1.48;;;1.15;;
58685;SDS011;44465;53.206;-6.106;2023-07-13T03:06:13;1.20;;;1.10;;
58685;SDS011;44465;53.206;-6.106;2023-07-13T03:08:49;1.42;;;1.10;;
58685;SDS011;44465;53.206;-6.106;2023-07-13T03:11:16;1.92;;;1.42;;
58685;SDS011;44465;53.206;-6.106;2023-07-13T03:13:47;2.00;;;1.05;;
58685;SDS011;44465;53.206;-6.106;2023-07-13T03:16:14;1.30;;;0.95;;
58685;SDS011;44465;53.206;-6.106;2023-07-13T03:18:45;1.58;;;1.20;;
58685;SDS011;44465;53.206;-6.106;2023-07-13T03:21:11;2.90;;;1.25;;
58685;SDS011;44465;53.206;-6.106;2023-07-13T03:23:38;1.48;;;1.02;;
58685;SDS011;44465;53.206;-6.106;2023-07-13T03:26:08;1.40;;;0.90;;
58685;SDS011;44465;53.206;-6.106;2023-07-13T03:28:44;2.00;;;1.10;;
58685;SDS011;44465;53.206;-6.106;2023-07-13T03:31:16;1.77;;;0.95;;
58685;SDS011;44465;53.206;-6.106;2023-07-13T03:33:44;2.67;;;0.95;;
58685;SDS011;44465;53.206;-6.106;2023-07-13T03:36:13;1.17;;;1.08;;
58685;SDS011;44465;53.206;-6.106;2023-07-13T03:38:42;1.45;;;1.15;;
58685;SDS011;44465;53.206;-6.106;2023-07-13T03:41:08;1.83;;;1.02;;
58685;SDS011;44465;53.206;-6.106;2023-07-13T03:43:34;1.20;;;0.98;;
58685;SDS011;44465;53.206;-6.106;2023-07-13T03:45:59;1.15;;;1.00;;
58685;SDS011;44465;53.206;-6.106;2023-07-13T03:48:25;2.28;;;1.20;;
58685;SDS011;44465;53.206;-6.106;2023-07-13T03:50:50;1.23;;;0.90;;
58685;SDS011;44465;53.206;-6.106;2023-07-13T03:53:16;1.27;;;0.80;;
58685;SDS011;44465;53.206;-6.106;2023-07-13T03:55:41;1.27;;;0.90;;
58685;SDS011;44465;53.206;-6.106;2023-07-13T03:58:25;1.90;;;1.20;;
58685;SDS011;44465;53.206;-6.106;2023-07-13T04:00:56;2.22;;;1.48;;
58685;SDS011;44465;53.206;-6.106;2023-07-13T04:03:22;1.00;;;0.90;;
58685;SDS011;44465;53.206;-6.106;2023-07-13T04:05:48;1.20;;;1.05;;
58685;SDS011;44465;53.206;-6.106;2023-07-13T04:08:13;1.45;;;1.15;;
58685;SDS011;44465;53.206;-6.106;2023-07-13T04:10:39;1.30;;;0.90;;
58685;SDS011;44465;53.206;-6.106;2023-07-13T04:13:05;1.05;;;0.98;;
58685;SDS011;44465;53.206;-6.106;2023-07-13T04:15:31;1.02;;;1.00;;
58685;SDS011;44465;53.206;-6.106;2023-07-13T04:17:57;1.75;;;1.23;;
58685;SDS011;44465;53.206;-6.106;2023-07-13T04:20:23;0.95;;;0.95;;
58685;SDS011;44465;53.206;-6.106;2023-07-13T04:22:50;1.77;;;1.10;;
58685;SDS011;44465;53.206;-6.106;2023-07-13T04:25:16;1.65;;;0.90;;
58685;SDS011;44465;53.206;-6.106;2023-07-13T04:27:41;1.02;;;0.93;;
58685;SDS011;44465;53.206;-6.106;2023-07-13T04:30:07;1.00;;;0.90;;
58685;SDS011;44465;53.206;-6.106;2023-07-13T04:32:33;0.88;;;0.85;;
58685;SDS011;44465;53.206;-6.106;2023-07-13T04:34:58;1.45;;;1.20;;
58685;SDS011;44465;53.206;-6.106;2023-07-13T04:37:27;1.67;;;1.00;;
58685;SDS011;44465;53.206;-6.106;2023-07-13T04:39:54;0.80;;;0.80;;
58685;SDS011;44465;53.206;-6.106;2023-07-13T04:42:20;1.23;;;0.82;;
58685;SDS011;44465;53.206;-6.106;2023-07-13T04:44:49;0.75;;;0.75;;
58685;SDS011;44465;53.206;-6.106;2023-07-13T04:47:15;1.55;;;0.98;;
58685;SDS011;44465;53.206;-6.106;2023-07-13T04:49:40;1.08;;;0.98;;
58685;SDS011;44465;53.206;-6.106;2023-07-13T04:52:06;1.00;;;0.90;;
58685;SDS011;44465;53.206;-6.106;2023-07-13T04:54:33;1.23;;;1.00;;
58685;SDS011;44465;53.206;-6.106;2023-07-13T04:56:59;1.30;;;1.00;;
58685;SDS011;44465;53.206;-6.106;2023-07-13T04:59:25;1.00;;;0.98;;
58685;SDS011;44465;53.206;-6.106;2023-07-13T05:01:50;2.40;;;1.10;;
58685;SDS011;44465;53.206;-6.106;2023-07-13T05:04:16;0.90;;;0.90;;
58685;SDS011;44465;53.206;-6.106;2023-07-13T05:06:42;1.20;;;1.02;;
58685;SDS011;44465;53.206;-6.106;2023-07-13T05:09:07;2.15;;;0.95;;
58685;SDS011;44465;53.206;-6.106;2023-07-13T05:11:33;0.80;;;0.80;;
58685;SDS011;44465;53.206;-6.106;2023-07-13T05:13:58;0.95;;;0.90;;
58685;SDS011;44465;53.206;-6.106;2023-07-13T05:16:24;1.15;;;1.00;;
58685;SDS011;44465;53.206;-6.106;2023-07-13T05:18:49;0.93;;;0.90;;
58685;SDS011;44465;53.206;-6.106;2023-07-13T05:21:15;2.45;;;1.38;;
58685;SDS011;44465;53.206;-6.106;2023-07-13T05:23:40;1.80;;;0.95;;
58685;SDS011;44465;53.206;-6.106;2023-07-13T05:26:09;1.05;;;0.90;;
58685;SDS011;44465;53.206;-6.106;2023-07-13T05:28:34;2.58;;;1.35;;
58685;SDS011;44465;53.206;-6.106;2023-07-13T05:31:00;1.17;;;0.80;;
58685;SDS011;44465;53.206;-6.106;2023-07-13T05:33:26;2.05;;;1.17;;
58685;SDS011;44465;53.206;-6.106;2023-07-13T05:35:51;1.27;;;0.90;;
58685;SDS011;44465;53.206;-6.106;2023-07-13T05:38:17;1.85;;;1.00;;
58685;SDS011;44465;53.206;-6.106;2023-07-13T05:40:43;1.40;;;0.80;;
58685;SDS011;44465;53.206;-6.106;2023-07-13T05:43:09;0.98;;;0.90;;
58685;SDS011;44465;53.206;-6.106;2023-07-13T05:45:34;1.52;;;1.20;;
58685;SDS011;44465;53.206;-6.106;2023-07-13T05:48:00;1.23;;;1.02;;
58685;SDS011;44465;53.206;-6.106;2023-07-13T05:50:26;2.88;;;0.98;;
58685;SDS011;44465;53.206;-6.106;2023-07-13T05:52:52;2.33;;;1.15;;
58685;SDS011;44465;53.206;-6.106;2023-07-13T05:55:17;1.45;;;1.20;;
58685;SDS011;44465;53.206;-6.106;2023-07-13T05:57:43;0.80;;;0.75;;
58685;SDS011;44465;53.206;-6.106;2023-07-13T06:00:09;0.98;;;0.88;;
58685;SDS011;44465;53.206;-6.106;2023-07-13T06:02:37;1.95;;;1.20;;
58685;SDS011;44465;53.206;-6.106;2023-07-13T06:05:03;0.90;;;0.90;;
58685;SDS011;44465;53.206;-6.106;2023-07-13T06:07:30;1.40;;;0.95;;
58685;SDS011;44465;53.206;-6.106;2023-07-13T06:09:55;2.17;;;1.02;;
58685;SDS011;44465;53.206;-6.106;2023-07-13T06:12:21;1.48;;;0.90;;
58685;SDS011;44465;53.206;-6.106;2023-07-13T06:14:46;1.05;;;0.90;;
58685;SDS011;44465;53.206;-6.106;2023-07-13T06:17:12;1.95;;;0.98;;
58685;SDS011;44465;53.206;-6.106;2023-07-13T06:19:37;0.95;;;0.88;;
58685;SDS011;44465;53.206;-6.106;2023-07-13T06:22:03;0.80;;;0.80;;
58685;SDS011;44465;53.206;-6.106;2023-07-13T06:24:29;1.58;;;1.13;;
58685;SDS011;44465;53.206;-6.106;2023-07-13T06:26:54;0.80;;;0.80;;
58685;SDS011;44465;53.206;-6.106;2023-07-13T06:29:20;0.90;;;0.90;;
58685;SDS011;44465;53.206;-6.106;2023-07-13T06:31:45;1.45;;;1.10;;
58685;SDS011;44465;53.206;-6.106;2023-07-13T06:34:11;1.52;;;1.27;;
58685;SDS011;44465;53.206;-6.106;2023-07-13T06:36:36;1.88;;;1.20;;
58685;SDS011;44465;53.206;-6.106;2023-07-13T06:39:03;2.92;;;1.13;;
58685;SDS011;44465;53.206;-6.106;2023-07-13T06:41:29;1.08;;;1.00;;
58685;SDS011;44465;53.206;-6.106;2023-07-13T06:43:56;1.35;;;1.10;;
58685;SDS011;44465;53.206;-6.106;2023-07-13T06:46:22;2.13;;;1.15;;
58685;SDS011;44465;53.206;-6.106;2023-07-13T06:48:48;1.63;;;1.17;;
58685;SDS011;44465;53.206;-6.106;2023-07-13T06:51:14;2.10;;;1.02;;
58685;SDS011;44465;53.206;-6.106;2023-07-13T06:53:39;1.65;;;1.00;;
58685;SDS011;44465;53.206;-6.106;2023-07-13T06:56:05;1.23;;;1.00;;
58685;SDS011;44465;53.206;-6.106;2023-07-13T06:58:31;1.92;;;1.30;;
58685;SDS011;44465;53.206;-6.106;2023-07-13T07:00:58;4.43;;;1.05;;
58685;SDS011;44465;53.206;-6.106;2023-07-13T07:03:24;1.95;;;0.90;;
58685;SDS011;44465;53.206;-6.106;2023-07-13T07:05:49;1.05;;;0.95;;
58685;SDS011;44465;53.206;-6.106;2023-07-13T07:08:14;1.90;;;1.00;;
58685;SDS011;44465;53.206;-6.106;2023-07-13T07:10:40;1.52;;;0.98;;
58685;SDS011;44465;53.206;-6.106;2023-07-13T07:13:06;1.70;;;1.05;;
58685;SDS011;44465;53.206;-6.106;2023-07-13T07:15:31;2.25;;;1.08;;
58685;SDS011;44465;53.206;-6.106;2023-07-13T07:17:57;1.20;;;1.08;;
58685;SDS011;44465;53.206;-6.106;2023-07-13T07:20:22;2.28;;;1.10;;
58685;SDS011;44465;53.206;-6.106;2023-07-13T07:22:48;1.20;;;0.80;;
58685;SDS011;44465;53.206;-6.106;2023-07-13T07:25:13;4.75;;;1.42;;
58685;SDS011;44465;53.206;-6.106;2023-07-13T07:27:39;1.38;;;0.95;;
58685;SDS011;44465;53.206;-6.106;2023-07-13T07:30:05;1.67;;;1.05;;
58685;SDS011;44465;53.206;-6.106;2023-07-13T07:32:31;0.90;;;0.90;;
58685;SDS011;44465;53.206;-6.106;2023-07-13T07:34:57;1.10;;;1.00;;
58685;SDS011;44465;53.206;-6.106;2023-07-13T07:37:23;2.80;;;1.13;;
58685;SDS011;44465;53.206;-6.106;2023-07-13T07:39:49;1.33;;;1.02;;
58685;SDS011;44465;53.206;-6.106;2023-07-13T07:42:15;1.77;;;1.20;;
58685;SDS011;44465;53.206;-6.106;2023-07-13T07:44:41;2.22;;;0.90;;
58685;SDS011;44465;53.206;-6.106;2023-07-13T07:47:07;1.55;;;1.10;;
58685;SDS011;44465;53.206;-6.106;2023-07-13T07:49:33;2.03;;;1.05;;
58685;SDS011;44465;53.206;-6.106;2023-07-13T07:51:58;2.03;;;0.93;;
58685;SDS011;44465;53.206;-6.106;2023-07-13T07:54:24;1.08;;;0.88;;
58685;SDS011;44465;53.206;-6.106;2023-07-13T07:56:49;1.20;;;0.95;;
58685;SDS011;44465;53.206;-6.106;2023-07-13T07:59:14;1.50;;;1.08;;
58685;SDS011;44465;53.206;-6.106;2023-07-13T08:01:40;2.92;;;1.08;;
58685;SDS011;44465;53.206;-6.106;2023-07-13T08:04:05;1.80;;;0.90;;
58685;SDS011;44465;53.206;-6.106;2023-07-13T08:06:32;2.28;;;1.17;;
58685;SDS011;44465;53.206;-6.106;2023-07-13T08:08:58;1.67;;;1.00;;
58685;SDS011;44465;53.206;-6.106;2023-07-13T08:11:24;1.02;;;0.90;;
58685;SDS011;44465;53.206;-6.106;2023-07-13T08:13:50;0.77;;;0.63;;
58685;SDS011;44465;53.206;-6.106;2023-07-13T08:16:16;2.15;;;1.00;;
58685;SDS011;44465;53.206;-6.106;2023-07-13T08:18:41;1.48;;;1.38;;
58685;SDS011;44465;53.206;-6.106;2023-07-13T08:21:07;2.38;;;1.02;;
58685;SDS011;44465;53.206;-6.106;2023-07-13T08:23:34;2.40;;;0.80;;
58685;SDS011;44465;53.206;-6.106;2023-07-13T08:26:00;1.00;;;0.90;;
58685;SDS011;44465;53.206;-6.106;2023-07-13T08:28:27;2.45;;;1.15;;
58685;SDS011;44465;53.206;-6.106;2023-07-13T08:30:53;1.52;;;0.90;;
58685;SDS011;44465;53.206;-6.106;2023-07-13T08:33:19;1.00;;;1.00;;
58685;SDS011;44465;53.206;-6.106;2023-07-13T08:35:46;1.77;;;0.80;;
58685;SDS011;44465;53.206;-6.106;2023-07-13T08:38:13;1.67;;;0.88;;
58685;SDS011;44465;53.206;-6.106;2023-07-13T08:40:39;1.10;;;1.10;;
58685;SDS011;44465;53.206;-6.106;2023-07-13T08:43:06;1.17;;;0.83;;
58685;SDS011;44465;53.206;-6.106;2023-07-13T08:45:52;1.33;;;1.10;;
58685;SDS011;44465;53.206;-6.106;2023-07-13T08:48:28;1.45;;;0.75;;
58685;SDS011;44465;53.206;-6.106;2023-07-13T08:50:58;0.70;;;0.70;;
58685;SDS011;44465;53.206;-6.106;2023-07-13T08:53:39;0.95;;;0.88;;
58685;SDS011;44465;53.206;-6.106;2023-07-13T08:56:22;1.13;;;0.80;;
58685;SDS011;44465;53.206;-6.106;2023-07-13T08:58:55;1.50;;;1.05;;
58685;SDS011;44465;53.206;-6.106;2023-07-13T09:01:31;1.58;;;1.00;;
58685;SDS011;44465;53.206;-6.106;2023-07-13T09:04:12;2.15;;;1.35;;
58685;SDS011;44465;53.206;-6.106;2023-07-13T09:06:45;1.63;;;1.10;;
58685;SDS011;44465;53.206;-6.106;2023-07-13T09:15:54;1.08;;;0.85;;
58685;SDS011;44465;53.206;-6.106;2023-07-13T09:18:33;1.60;;;0.90;;
58685;SDS011;44465;53.206;-6.106;2023-07-13T09:24:18;1.88;;;0.80;;
58685;SDS011;44465;53.206;-6.106;2023-07-13T09:26:55;0.80;;;0.80;;
58685;SDS011;44465;53.206;-6.106;2023-07-13T09:29:29;1.80;;;0.90;;
58685;SDS011;44465;53.206;-6.106;2023-07-13T09:32:01;1.15;;;1.08;;
58685;SDS011;44465;53.206;-6.106;2023-07-13T09:34:29;1.73;;;0.90;;
58685;SDS011;44465;53.206;-6.106;2023-07-13T09:36:58;1.00;;;1.00;;
58685;SDS011;44465;53.206;-6.106;2023-07-13T09:39:27;1.58;;;0.90;;
58685;SDS011;44465;53.206;-6.106;2023-07-13T09:41:59;1.10;;;1.00;;
58685;SDS011;44465;53.206;-6.106;2023-07-13T09:44:39;1.10;;;1.00;;
58685;SDS011;44465;53.206;-6.106;2023-07-13T09:49:43;1.33;;;1.20;;
58685;SDS011;44465;53.206;-6.106;2023-07-13T09:52:14;1.92;;;1.00;;
58685;SDS011;44465;53.206;-6.106;2023-07-13T09:54:44;1.80;;;1.00;;
58685;SDS011;44465;53.206;-6.106;2023-07-13T09:57:17;2.88;;;1.17;;
58685;SDS011;44465;53.206;-6.106;2023-07-13T09:59:48;1.40;;;1.10;;
58685;SDS011;44465;53.206;-6.106;2023-07-13T10:02:34;1.45;;;1.35;;
58685;SDS011;44465;53.206;-6.106;2023-07-13T10:05:04;0.80;;;0.80;;
58685;SDS011;44465;53.206;-6.106;2023-07-13T10:07:35;1.17;;;0.90;;
58685;SDS011;44465;53.206;-6.106;2023-07-13T10:10:12;1.20;;;0.98;;
58685;SDS011;44465;53.206;-6.106;2023-07-13T10:12:40;1.00;;;0.88;;
58685;SDS011;44465;53.206;-6.106;2023-07-13T10:15:07;1.00;;;0.95;;
58685;SDS011;44465;53.206;-6.106;2023-07-13T10:17:38;1.25;;;0.90;;
58685;SDS011;44465;53.206;-6.106;2023-07-13T10:20:05;1.67;;;1.10;;
58685;SDS011;44465;53.206;-6.106;2023-07-13T10:22:50;1.50;;;0.98;;
58685;SDS011;44465;53.206;-6.106;2023-07-13T10:25:25;0.98;;;0.95;;
58685;SDS011;44465;53.206;-6.106;2023-07-13T10:27:54;0.90;;;0.90;;
58685;SDS011;44465;53.206;-6.106;2023-07-13T10:30:31;1.05;;;1.02;;
58685;SDS011;44465;53.206;-6.106;2023-07-13T10:33:03;1.20;;;1.10;;
58685;SDS011;44465;53.206;-6.106;2023-07-13T10:35:36;1.30;;;1.17;;
58685;SDS011;44465;53.206;-6.106;2023-07-13T10:38:05;0.98;;;0.88;;
58685;SDS011;44465;53.206;-6.106;2023-07-13T10:40:42;1.33;;;1.05;;
58685;SDS011;44465;53.206;-6.106;2023-07-13T10:43:20;7.20;;;1.65;;
58685;SDS011;44465;53.206;-6.106;2023-07-13T10:45:53;7.35;;;1.73;;
58685;SDS011;44465;53.206;-6.106;2023-07-13T10:48:19;6.05;;;1.48;;
58685;SDS011;44465;53.206;-6.106;2023-07-13T10:50:48;2.60;;;1.00;;
58685;SDS011;44465;53.206;-6.106;2023-07-13T10:53:19;4.15;;;1.05;;
58685;SDS011;44465;53.206;-6.106;2023-07-13T10:55:58;2.15;;;0.93;;
58685;SDS011;44465;53.206;-6.106;2023-07-13T11:03:48;2.20;;;0.98;;
58685;SDS011;44465;53.206;-6.106;2023-07-13T11:09:39;3.22;;;1.27;;
58685;SDS011;44465;53.206;-6.106;2023-07-13T11:11:56;2.67;;;1.17;;
58685;SDS011;44465;53.206;-6.106;2023-07-13T11:14:29;3.30;;;1.25;;
58685;SDS011;44465;53.206;-6.106;2023-07-13T11:17:33;4.00;;;1.17;;
58685;SDS011;44465;53.206;-6.106;2023-07-13T11:22:46;3.00;;;1.25;;
58685;SDS011;44465;53.206;-6.106;2023-07-13T11:25:33;2.28;;;1.30;;
58685;SDS011;44465;53.206;-6.106;2023-07-13T11:30:39;1.50;;;1.10;;
58685;SDS011;44465;53.206;-6.106;2023-07-13T11:35:41;1.35;;;1.10;;
58685;SDS011;44465;53.206;-6.106;2023-07-13T11:38:15;5.47;;;1.50;;
58685;SDS011;44465;53.206;-6.106;2023-07-13T11:40:46;4.90;;;1.98;;
58685;SDS011;44465;53.206;-6.106;2023-07-13T11:43:13;4.03;;;1.67;;
58685;SDS011;44465;53.206;-6.106;2023-07-13T11:45:41;5.55;;;1.48;;
58685;SDS011;44465;53.206;-6.106;2023-07-13T11:48:18;7.30;;;1.40;;
58685;SDS011;44465;53.206;-6.106;2023-07-13T11:50:56;7.03;;;1.67;;
58685;SDS011;44465;53.206;-6.106;2023-07-13T11:53:26;5.05;;;1.58;;
58685;SDS011;44465;53.206;-6.106;2023-07-13T11:55:54;2.63;;;1.00;;
58685;SDS011;44465;53.206;-6.106;2023-07-13T11:58:23;4.68;;;1.70;;
58685;SDS011;44465;53.206;-6.106;2023-07-13T12:00:50;5.63;;;1.60;;
58685;SDS011;44465;53.206;-6.106;2023-07-13T12:03:19;1.08;;;0.98;;
58685;SDS011;44465;53.206;-6.106;2023-07-13T12:05:58;2.85;;;1.40;;
58685;SDS011;44465;53.206;-6.106;2023-07-13T12:08:32;4.05;;;1.35;;
58685;SDS011;44465;53.206;-6.106;2023-07-13T12:11:05;3.25;;;1.48;;
58685;SDS011;44465;53.206;-6.106;2023-07-13T12:13:40;3.47;;;1.30;;
58685;SDS011;44465;53.206;-6.106;2023-07-13T12:16:14;4.35;;;1.67;;
58685;SDS011;44465;53.206;-6.106;2023-07-13T12:18:41;5.13;;;1.30;;
58685;SDS011;44465;53.206;-6.106;2023-07-13T12:21:12;23.05;;;3.35;;
58685;SDS011;44465;53.206;-6.106;2023-07-13T12:23:39;8.95;;;1.77;;
58685;SDS011;44465;53.206;-6.106;2023-07-13T12:26:09;12.43;;;2.20;;
58685;SDS011;44465;53.206;-6.106;2023-07-13T12:28:37;7.80;;;1.73;;
58685;SDS011;44465;53.206;-6.106;2023-07-13T12:31:22;5.45;;;1.88;;
58685;SDS011;44465;53.206;-6.106;2023-07-13T12:34:00;6.78;;;1.45;;
58685;SDS011;44465;53.206;-6.106;2023-07-13T12:36:31;4.57;;;1.80;;
58685;SDS011;44465;53.206;-6.106;2023-07-13T12:39:00;8.93;;;1.70;;
58685;SDS011;44465;53.206;-6.106;2023-07-13T12:41:37;9.60;;;2.00;;
58685;SDS011;44465;53.206;-6.106;2023-07-13T12:44:04;6.15;;;1.40;;
58685;SDS011;44465;53.206;-6.106;2023-07-13T12:46:34;4.57;;;1.90;;
58685;SDS011;44465;53.206;-6.106;2023-07-13T12:49:00;8.15;;;1.80;;
58685;SDS011;44465;53.206;-6.106;2023-07-13T12:51:26;5.10;;;1.67;;
58685;SDS011;44465;53.206;-6.106;2023-07-13T12:53:57;10.02;;;1.85;;
58685;SDS011;44465;53.206;-6.106;2023-07-13T12:56:30;2.58;;;1.70;;
58685;SDS011;44465;53.206;-6.106;2023-07-13T12:59:00;2.92;;;1.85;;
58685;SDS011;44465;53.206;-6.106;2023-07-13T13:01:29;4.38;;;1.50;;
58685;SDS011;44465;53.206;-6.106;2023-07-13T13:04:00;2.08;;;1.30;;
58685;SDS011;44465;53.206;-6.106;2023-07-13T13:06:32;4.55;;;1.60;;
58685;SDS011;44465;53.206;-6.106;2023-07-13T13:08:58;1.67;;;1.50;;
58685;SDS011;44465;53.206;-6.106;2023-07-13T13:11:25;4.57;;;1.30;;
58685;SDS011;44465;53.206;-6.106;2023-07-13T13:13:52;5.82;;;1.60;;
58685;SDS011;44465;53.206;-6.106;2023-07-13T13:18:47;3.35;;;1.50;;
58685;SDS011;44465;53.206;-6.106;2023-07-13T13:21:13;4.50;;;1.45;;
58685;SDS011;44465;53.206;-6.106;2023-07-13T13:23:38;6.00;;;1.90;;
58685;SDS011;44465;53.206;-6.106;2023-07-13T13:26:07;2.95;;;1.30;;
58685;SDS011;44465;53.206;-6.106;2023-07-13T13:28:35;2.20;;;1.20;;
58685;SDS011;44465;53.206;-6.106;2023-07-13T13:31:01;2.63;;;1.60;;
58685;SDS011;44465;53.206;-6.106;2023-07-13T13:33:26;2.78;;;1.58;;
58685;SDS011;44465;53.206;-6.106;2023-07-13T13:35:52;5.97;;;2.10;;
58685;SDS011;44465;53.206;-6.106;2023-07-13T13:38:19;4.28;;;1.40;;
58685;SDS011;44465;53.206;-6.106;2023-07-13T13:40:52;3.40;;;1.50;;
58685;SDS011;44465;53.206;-6.106;2023-07-13T13:43:22;4.15;;;1.45;;
58685;SDS011;44465;53.206;-6.106;2023-07-13T13:45:52;2.83;;;1.27;;
58685;SDS011;44465;53.206;-6.106;2023-07-13T13:48:27;3.45;;;1.85;;
58685;SDS011;44465;53.206;-6.106;2023-07-13T13:50:56;2.72;;;1.23;;
58685;SDS011;44465;53.206;-6.106;2023-07-13T13:53:23;2.40;;;1.52;;
58685;SDS011;44465;53.206;-6.106;2023-07-13T13:55:48;3.25;;;1.10;;
58685;SDS011;44465;53.206;-6.106;2023-07-13T13:58:15;3.47;;;1.50;;
58685;SDS011;44465;53.206;-6.106;2023-07-13T14:00:40;14.75;;;2.75;;
58685;SDS011;44465;53.206;-6.106;2023-07-13T14:03:28;5.78;;;2.03;;
58685;SDS011;44465;53.206;-6.106;2023-07-13T14:05:53;13.13;;;2.78;;
58685;SDS011;44465;53.206;-6.106;2023-07-13T14:08:22;10.48;;;2.13;;
58685;SDS011;44465;53.206;-6.106;2023-07-13T14:10:49;6.40;;;2.03;;
58685;SDS011;44465;53.206;-6.106;2023-07-13T14:13:18;6.15;;;1.80;;
58685;SDS011;44465;53.206;-6.106;2023-07-13T14:15:48;7.95;;;1.80;;
58685;SDS011;44465;53.206;-6.106;2023-07-13T14:18:14;6.50;;;1.73;;
58685;SDS011;44465;53.206;-6.106;2023-07-13T14:20:43;3.15;;;1.75;;
58685;SDS011;44465;53.206;-6.106;2023-07-13T14:23:11;7.50;;;1.92;;
58685;SDS011;44465;53.206;-6.106;2023-07-13T14:25:38;3.33;;;1.40;;
58685;SDS011;44465;53.206;-6.106;2023-07-13T14:28:09;6.07;;;2.08;;
58685;SDS011;44465;53.206;-6.106;2023-07-13T14:30:45;6.50;;;2.00;;
58685;SDS011;44465;53.206;-6.106;2023-07-13T14:33:12;6.97;;;1.83;;
58685;SDS011;44465;53.206;-6.106;2023-07-13T14:35:38;6.85;;;1.60;;
58685;SDS011;44465;53.206;-6.106;2023-07-13T14:38:04;7.20;;;2.70;;
58685;SDS011;44465;53.206;-6.106;2023-07-13T14:40:30;4.60;;;1.80;;
58685;SDS011;44465;53.206;-6.106;2023-07-13T14:42:57;5.18;;;1.90;;
58685;SDS011;44465;53.206;-6.106;2023-07-13T14:45:23;4.05;;;1.45;;
58685;SDS011;44465;53.206;-6.106;2023-07-13T14:47:50;4.20;;;1.73;;
58685;SDS011;44465;53.206;-6.106;2023-07-13T14:50:20;4.18;;;1.73;;
58685;SDS011;44465;53.206;-6.106;2023-07-13T14:52:49;7.03;;;1.70;;
58685;SDS011;44465;53.206;-6.106;2023-07-13T14:55:18;4.97;;;1.65;;
58685;SDS011;44465;53.206;-6.106;2023-07-13T14:57:45;3.83;;;1.52;;
58685;SDS011;44465;53.206;-6.106;2023-07-13T15:00:14;6.60;;;1.70;;
58685;SDS011;44465;53.206;-6.106;2023-07-13T15:02:43;5.75;;;1.73;;
58685;SDS011;44465;53.206;-6.106;2023-07-13T15:05:16;4.53;;;1.75;;
58685;SDS011;44465;53.206;-6.106;2023-07-13T15:07:50;5.70;;;1.60;;
58685;SDS011;44465;53.206;-6.106;2023-07-13T15:10:21;3.17;;;1.60;;
58685;SDS011;44465;53.206;-6.106;2023-07-13T15:12:51;5.60;;;1.55;;
58685;SDS011;44465;53.206;-6.106;2023-07-13T15:15:17;2.47;;;1.55;;
58685;SDS011;44465;53.206;-6.106;2023-07-13T15:17:44;3.65;;;1.40;;